createdAt,value
2017-05-06T00:00:50.964Z,1014.69
2017-05-06T00:01:50.988Z,1014.7
2017-05-06T00:02:51.007Z,1014.67
2017-05-06T00:04:51.051Z,1014.66
2017-05-06T00:05:51.094Z,1014.65
2017-05-06T00:06:51.094Z,1014.63
2017-05-06T00:07:51.117Z,1014.65
2017-05-06T00:08:51.138Z,1014.65
2017-05-06T00:09:51.161Z,1014.68
2017-05-06T00:10:51.182Z,1014.68
2017-05-06T00:11:51.204Z,1014.64
2017-05-06T00:12:51.226Z,1014.63
2017-05-06T00:13:51.248Z,1014.62
2017-05-06T00:14:51.270Z,1014.66
2017-05-06T00:15:51.291Z,1014.66
2017-05-06T00:16:51.315Z,1014.62
2017-05-06T00:17:51.334Z,1014.6
2017-05-06T00:18:51.356Z,1014.62
2017-05-06T00:20:51.400Z,1014.58
2017-05-06T00:21:51.421Z,1014.56
2017-05-06T00:22:51.443Z,1014.54
2017-05-06T00:23:51.465Z,1014.49
2017-05-06T00:24:51.486Z,1014.49
2017-05-06T00:25:51.508Z,1014.48
2017-05-06T00:26:51.530Z,1014.45
2017-05-06T00:27:51.552Z,1014.41
2017-05-06T00:28:51.573Z,1014.42
2017-05-06T00:29:51.597Z,1014.38
2017-05-06T00:30:51.617Z,1014.36
2017-05-06T00:31:51.640Z,1014.32
2017-05-06T00:32:51.660Z,1014.33
2017-05-06T00:33:51.682Z,1014.28
2017-05-06T00:34:51.704Z,1014.28
2017-05-06T00:36:51.747Z,1014.32
2017-05-06T00:37:51.770Z,1014.33
2017-05-06T00:38:51.792Z,1014.37
2017-05-06T00:39:51.813Z,1014.35
2017-05-06T00:40:51.834Z,1014.33
2017-05-06T00:41:51.855Z,1014.34
2017-05-06T00:42:51.877Z,1014.33
2017-05-06T00:43:51.899Z,1014.32
2017-05-06T00:44:51.920Z,1014.31
2017-05-06T00:45:51.942Z,1014.33
2017-05-06T00:46:51.963Z,1014.32
2017-05-06T00:47:51.985Z,1014.31
2017-05-06T00:48:52.007Z,1014.26
2017-05-06T00:49:52.029Z,1014.23
2017-05-06T00:50:52.050Z,1014.22
2017-05-06T00:52:52.094Z,1014.2
2017-05-06T00:53:52.115Z,1014.21
2017-05-06T00:54:52.136Z,1014.18
2017-05-06T00:55:52.158Z,1014.21
2017-05-06T00:56:52.180Z,1014.2
2017-05-06T00:57:52.201Z,1014.17
2017-05-06T00:58:52.221Z,1014.18
2017-05-06T00:59:52.244Z,1014.17
2017-05-06T01:00:52.266Z,1014.14
2017-05-06T01:01:52.287Z,1014.13
2017-05-06T01:02:52.308Z,1014.11
2017-05-06T01:03:52.330Z,1014.12
2017-05-06T01:04:52.351Z,1014.08
2017-05-06T01:05:52.373Z,1014.08
2017-05-06T01:07:52.417Z,1014.08
2017-05-06T01:08:52.438Z,1014.08
2017-05-06T01:09:52.461Z,1014.05
2017-05-06T01:10:52.482Z,1014.05
2017-05-06T01:11:52.503Z,1014.03
2017-05-06T01:12:52.525Z,1014.04
2017-05-06T01:13:52.547Z,1014.05
2017-05-06T01:14:52.568Z,1014.03
2017-05-06T01:15:52.590Z,1014.07
2017-05-06T01:16:52.610Z,1014.06
2017-05-06T01:17:52.633Z,1014.02
2017-05-06T01:18:52.655Z,1014.04
2017-05-06T01:19:52.676Z,1014.06
2017-05-06T01:20:52.698Z,1014.03
2017-05-06T01:21:52.719Z,1014.01
2017-05-06T01:22:52.741Z,1014.02
2017-05-06T01:23:52.762Z,1014.02
2017-05-06T01:24:52.783Z,1014.02
2017-05-06T01:25:52.806Z,1014.02
2017-05-06T01:26:52.827Z,1014.04
2017-05-06T01:27:52.847Z,1014.02
2017-05-06T01:28:52.869Z,1014.04
2017-05-06T01:29:52.896Z,1014.01
2017-05-06T01:30:52.913Z,1014
2017-05-06T01:31:52.935Z,1014
2017-05-06T01:32:52.956Z,1013.97
2017-05-06T01:33:52.977Z,1013.96
2017-05-06T01:34:52.999Z,1013.96
2017-05-06T01:35:53.020Z,1014.01
2017-05-06T01:36:53.042Z,1013.99
2017-05-06T01:37:53.063Z,1013.95
2017-05-06T01:39:53.106Z,1013.99
2017-05-06T01:40:53.127Z,1013.95
2017-05-06T01:41:53.148Z,1013.97
2017-05-06T01:42:53.170Z,1013.96
2017-05-06T01:43:53.191Z,1013.91
2017-05-06T01:44:53.214Z,1013.95
2017-05-06T01:45:53.234Z,1013.98
2017-05-06T01:46:53.256Z,1013.91
2017-05-06T01:47:53.277Z,1013.9
2017-05-06T01:48:53.299Z,1013.93
2017-05-06T01:49:53.320Z,1013.92
2017-05-06T01:50:53.341Z,1013.91
2017-05-06T01:51:53.391Z,1013.9
2017-05-06T01:52:53.385Z,1013.94
2017-05-06T01:53:53.406Z,1013.9
2017-05-06T01:55:53.449Z,1013.96
2017-05-06T01:56:53.469Z,1013.89
2017-05-06T01:57:53.491Z,1013.89
2017-05-06T01:58:53.512Z,1013.9
2017-05-06T01:59:53.533Z,1013.93
2017-05-06T02:00:53.555Z,1013.92
2017-05-06T02:01:53.576Z,1013.91
2017-05-06T02:02:53.600Z,1013.91
2017-05-06T02:03:53.619Z,1013.92
2017-05-06T02:04:53.640Z,1013.95
2017-05-06T02:05:53.662Z,1013.95
2017-05-06T02:06:53.683Z,1013.95
2017-05-06T02:07:53.703Z,1013.9
2017-05-06T02:08:53.727Z,1013.89
2017-05-06T02:09:53.747Z,1013.89
2017-05-06T02:11:53.789Z,1013.91
2017-05-06T02:12:53.811Z,1013.89
2017-05-06T02:13:53.833Z,1013.87
2017-05-06T02:14:53.854Z,1013.87
2017-05-06T02:15:53.874Z,1013.81
2017-05-06T02:16:53.897Z,1013.82
2017-05-06T02:17:53.918Z,1013.78
2017-05-06T02:18:53.940Z,1013.78
2017-05-06T02:19:53.960Z,1013.81
2017-05-06T02:20:53.982Z,1013.85
2017-05-06T02:21:54.003Z,1013.84
2017-05-06T02:22:54.024Z,1013.89
2017-05-06T02:23:54.050Z,1013.91
2017-05-06T02:24:54.067Z,1013.97
2017-05-06T02:25:54.088Z,1013.92
2017-05-06T02:27:54.137Z,1013.97
2017-05-06T02:28:54.154Z,1013.96
2017-05-06T02:29:54.175Z,1013.98
2017-05-06T02:30:54.197Z,1013.99
2017-05-06T02:31:54.217Z,1013.96
2017-05-06T02:32:54.239Z,1013.94
2017-05-06T02:33:54.260Z,1013.91
2017-05-06T02:34:54.282Z,1013.88
2017-05-06T02:35:54.304Z,1013.92
2017-05-06T02:36:54.325Z,1013.87
2017-05-06T02:37:54.346Z,1013.85
2017-05-06T02:38:54.368Z,1013.8
2017-05-06T02:39:54.393Z,1013.79
2017-05-06T02:40:54.411Z,1013.78
2017-05-06T02:42:54.455Z,1013.78
2017-05-06T02:43:54.476Z,1013.78
2017-05-06T02:44:54.498Z,1013.84
2017-05-06T02:45:54.523Z,1013.84
2017-05-06T02:46:54.541Z,1013.84
2017-05-06T02:47:54.562Z,1013.88
2017-05-06T02:48:54.584Z,1013.85
2017-05-06T02:49:54.605Z,1013.8
2017-05-06T02:50:54.626Z,1013.78
2017-05-06T02:51:54.648Z,1013.83
2017-05-06T02:52:54.669Z,1013.79
2017-05-06T02:53:54.695Z,1013.77
2017-05-06T02:54:54.712Z,1013.76
2017-05-06T02:55:54.734Z,1013.74
2017-05-06T02:56:54.755Z,1013.76
2017-05-06T02:57:54.778Z,1013.73
2017-05-06T02:58:54.798Z,1013.73
2017-05-06T02:59:54.820Z,1013.74
2017-05-06T03:00:54.842Z,1013.68
2017-05-06T03:01:54.862Z,1013.68
2017-05-06T03:02:54.886Z,1013.66
2017-05-06T03:03:54.906Z,1013.68
2017-05-06T03:04:54.928Z,1013.67
2017-05-06T03:05:54.948Z,1013.67
2017-05-06T03:06:54.970Z,1013.65
2017-05-06T03:07:54.992Z,1013.68
2017-05-06T03:08:55.014Z,1013.68
2017-05-06T03:09:55.034Z,1013.66
2017-05-06T03:10:55.056Z,1013.69
2017-05-06T03:11:55.077Z,1013.72
2017-05-06T03:12:55.099Z,1013.69
2017-05-06T03:14:55.142Z,1013.72
2017-05-06T03:15:55.163Z,1013.69
2017-05-06T03:16:55.183Z,1013.68
2017-05-06T03:17:55.206Z,1013.68
2017-05-06T03:18:55.227Z,1013.67
2017-05-06T03:19:55.248Z,1013.7
2017-05-06T03:20:55.270Z,1013.74
2017-05-06T03:21:55.291Z,1013.73
2017-05-06T03:22:55.313Z,1013.71
2017-05-06T03:23:55.332Z,1013.7
2017-05-06T03:24:55.355Z,1013.75
2017-05-06T03:25:55.393Z,1013.73
2017-05-06T03:26:55.398Z,1013.71
2017-05-06T03:27:55.419Z,1013.74
2017-05-06T03:28:55.440Z,1013.73
2017-05-06T03:30:55.483Z,1013.68
2017-05-06T03:31:55.504Z,1013.69
2017-05-06T03:32:55.525Z,1013.67
2017-05-06T03:33:55.547Z,1013.66
2017-05-06T03:34:55.570Z,1013.65
2017-05-06T03:35:55.589Z,1013.66
2017-05-06T03:36:55.611Z,1013.64
2017-05-06T03:37:55.633Z,1013.68
2017-05-06T03:38:55.666Z,1013.63
2017-05-06T03:39:55.674Z,1013.62
2017-05-06T03:40:55.697Z,1013.58
2017-05-06T03:41:55.718Z,1013.58
2017-05-06T03:42:55.738Z,1013.58
2017-05-06T03:43:55.761Z,1013.57
2017-05-06T03:44:55.781Z,1013.57
2017-05-06T03:46:55.823Z,1013.57
2017-05-06T03:47:55.845Z,1013.56
2017-05-06T03:48:55.865Z,1013.51
2017-05-06T03:49:55.886Z,1013.5
2017-05-06T03:50:55.908Z,1013.52
2017-05-06T03:51:55.929Z,1013.52
2017-05-06T03:52:55.950Z,1013.53
2017-05-06T03:53:55.971Z,1013.49
2017-05-06T03:54:55.992Z,1013.5
2017-05-06T03:55:56.013Z,1013.47
2017-05-06T03:56:56.033Z,1013.41
2017-05-06T03:57:56.055Z,1013.39
2017-05-06T03:58:56.077Z,1013.49
2017-05-06T03:59:56.103Z,1013.48
2017-05-06T04:00:56.118Z,1013.46
2017-05-06T04:02:56.162Z,1013.5
2017-05-06T04:03:56.182Z,1013.49
2017-05-06T04:04:56.203Z,1013.51
2017-05-06T04:05:56.225Z,1013.47
2017-05-06T04:06:56.244Z,1013.5
2017-05-06T04:07:56.267Z,1013.51
2017-05-06T04:08:56.289Z,1013.51
2017-05-06T04:09:56.308Z,1013.48
2017-05-06T04:10:56.330Z,1013.5
2017-05-06T04:11:56.351Z,1013.51
2017-05-06T04:12:56.371Z,1013.5
2017-05-06T04:13:56.393Z,1013.49
2017-05-06T04:14:56.415Z,1013.53
2017-05-06T04:15:56.436Z,1013.52
2017-05-06T04:17:56.481Z,1013.56
2017-05-06T04:18:56.499Z,1013.59
2017-05-06T04:19:56.521Z,1013.63
2017-05-06T04:20:56.542Z,1013.65
2017-05-06T04:21:56.564Z,1013.67
2017-05-06T04:22:56.584Z,1013.68
2017-05-06T04:23:56.606Z,1013.7
2017-05-06T04:24:56.628Z,1013.66
2017-05-06T04:25:56.647Z,1013.72
2017-05-06T04:26:56.669Z,1013.72
2017-05-06T04:27:56.695Z,1013.72
2017-05-06T04:28:56.713Z,1013.76
2017-05-06T04:29:56.734Z,1013.74
2017-05-06T04:30:56.756Z,1013.76
2017-05-06T04:31:56.782Z,1013.75
2017-05-06T04:32:56.799Z,1013.72
2017-05-06T04:33:56.820Z,1013.74
2017-05-06T04:34:56.842Z,1013.72
2017-05-06T04:35:56.863Z,1013.7
2017-05-06T04:36:56.884Z,1013.65
2017-05-06T04:37:56.905Z,1013.61
2017-05-06T04:38:56.928Z,1013.62
2017-05-06T04:39:56.950Z,1013.64
2017-05-06T04:40:56.970Z,1013.66
2017-05-06T04:41:56.992Z,1013.63
2017-05-06T04:42:57.014Z,1013.59
2017-05-06T04:43:57.065Z,1013.63
2017-05-06T04:44:57.056Z,1013.62
2017-05-06T04:45:57.078Z,1013.61
2017-05-06T04:46:57.100Z,1013.62
2017-05-06T04:47:57.121Z,1013.6
2017-05-06T04:49:57.164Z,1013.6
2017-05-06T04:50:57.187Z,1013.57
2017-05-06T04:51:57.208Z,1013.61
2017-05-06T04:52:57.229Z,1013.61
2017-05-06T04:53:57.251Z,1013.63
2017-05-06T04:54:57.273Z,1013.62
2017-05-06T04:55:57.294Z,1013.67
2017-05-06T04:56:57.316Z,1013.68
2017-05-06T04:57:57.337Z,1013.64
2017-05-06T04:58:57.359Z,1013.67
2017-05-06T04:59:57.380Z,1013.65
2017-05-06T05:00:57.402Z,1013.67
2017-05-06T05:01:57.425Z,1013.66
2017-05-06T05:02:57.445Z,1013.63
2017-05-06T05:03:57.468Z,1013.64
2017-05-06T05:05:57.511Z,1013.66
2017-05-06T05:06:57.532Z,1013.63
2017-05-06T05:07:57.554Z,1013.62
2017-05-06T05:08:57.575Z,1013.62
2017-05-06T05:09:57.597Z,1013.59
2017-05-06T05:10:57.619Z,1013.59
2017-05-06T05:11:57.640Z,1013.6
2017-05-06T05:12:57.663Z,1013.61
2017-05-06T05:13:57.684Z,1013.59
2017-05-06T05:14:57.706Z,1013.58
2017-05-06T05:15:57.727Z,1013.56
2017-05-06T05:16:57.749Z,1013.59
2017-05-06T05:17:57.771Z,1013.55
2017-05-06T05:18:57.793Z,1013.57
2017-05-06T05:19:57.815Z,1013.61
2017-05-06T05:21:57.862Z,1013.57
2017-05-06T05:22:57.880Z,1013.57
2017-05-06T05:23:57.902Z,1013.63
2017-05-06T05:24:57.925Z,1013.57
2017-05-06T05:25:57.948Z,1013.54
2017-05-06T05:26:57.972Z,1013.56
2017-05-06T05:27:57.991Z,1013.55
2017-05-06T05:28:58.011Z,1013.53
2017-05-06T05:29:58.034Z,1013.54
2017-05-06T05:30:58.307Z,1013.52
2017-05-06T05:31:58.077Z,1013.49
2017-05-06T05:32:58.099Z,1013.51
2017-05-06T05:33:58.121Z,1013.52
2017-05-06T05:34:58.144Z,1013.51
2017-05-06T05:35:58.166Z,1013.5
2017-05-06T05:37:58.210Z,1013.5
2017-05-06T05:38:58.232Z,1013.52
2017-05-06T05:39:58.254Z,1013.5
2017-05-06T05:40:58.277Z,1013.54
2017-05-06T05:41:58.300Z,1013.56
2017-05-06T05:42:58.321Z,1013.52
2017-05-06T05:43:58.343Z,1013.52
2017-05-06T05:44:58.365Z,1013.52
2017-05-06T05:45:58.388Z,1013.47
2017-05-06T05:46:58.409Z,1013.49
2017-05-06T05:47:58.432Z,1013.48
2017-05-06T05:48:58.459Z,1013.49
2017-05-06T05:49:58.477Z,1013.48
2017-05-06T05:50:58.500Z,1013.47
2017-05-06T05:52:58.544Z,1013.51
2017-05-06T05:53:58.567Z,1013.51
2017-05-06T05:54:58.590Z,1013.48
2017-05-06T05:55:58.612Z,1013.51
2017-05-06T05:56:58.635Z,1013.51
2017-05-06T05:57:58.656Z,1013.47
2017-05-06T05:58:58.681Z,1013.47
2017-05-06T05:59:58.703Z,1013.5
2017-05-06T06:00:58.725Z,1013.53
2017-05-06T06:01:58.748Z,1013.48
2017-05-06T06:02:58.771Z,1013.49
2017-05-06T06:03:58.794Z,1013.49
2017-05-06T06:04:58.816Z,1013.5
2017-05-06T06:05:58.838Z,1013.52
2017-05-06T06:06:58.861Z,1013.49
2017-05-06T06:07:58.884Z,1013.52
2017-05-06T06:08:58.906Z,1013.49
2017-05-06T06:09:58.929Z,1013.5
2017-05-06T06:10:58.952Z,1013.49
2017-05-06T06:11:58.977Z,1013.47
2017-05-06T06:12:58.998Z,1013.43
2017-05-06T06:13:59.030Z,1013.45
2017-05-06T06:14:59.044Z,1013.47
2017-05-06T06:15:59.065Z,1013.46
2017-05-06T06:16:59.091Z,1013.46
2017-05-06T06:17:59.111Z,1013.47
2017-05-06T06:18:59.134Z,1013.45
2017-05-06T06:19:59.156Z,1013.43
2017-05-06T06:20:59.179Z,1013.46
2017-05-06T06:21:59.202Z,1013.47
2017-05-06T06:22:59.224Z,1013.45
2017-05-06T06:24:59.269Z,1013.5
2017-05-06T06:25:59.292Z,1013.47
2017-05-06T06:26:59.314Z,1013.46
2017-05-06T06:27:59.338Z,1013.45
2017-05-06T06:28:59.360Z,1013.47
2017-05-06T06:29:59.383Z,1013.48
2017-05-06T06:30:59.407Z,1013.48
2017-05-06T06:31:59.427Z,1013.5
2017-05-06T06:32:59.450Z,1013.47
2017-05-06T06:33:59.472Z,1013.46
2017-05-06T06:34:59.495Z,1013.45
2017-05-06T06:35:59.518Z,1013.45
2017-05-06T06:36:59.540Z,1013.49
2017-05-06T06:37:59.562Z,1013.49
2017-05-06T06:38:59.585Z,1013.48
2017-05-06T06:40:59.631Z,1013.5
2017-05-06T06:41:59.653Z,1013.49
2017-05-06T06:42:59.701Z,1013.51
2017-05-06T06:43:59.700Z,1013.48
2017-05-06T06:44:59.721Z,1013.49
2017-05-06T06:45:59.744Z,1013.48
2017-05-06T06:46:59.767Z,1013.5
2017-05-06T06:47:59.790Z,1013.43
2017-05-06T06:48:59.812Z,1013.48
2017-05-06T06:49:59.835Z,1013.45
2017-05-06T06:50:59.858Z,1013.39
2017-05-06T06:51:59.881Z,1013.38
2017-05-06T06:52:59.904Z,1013.36
2017-05-06T06:53:59.926Z,1013.37
2017-05-06T06:54:59.949Z,1013.35
2017-05-06T06:56:59.994Z,1013.34
2017-05-06T06:58:00.017Z,1013.34
2017-05-06T06:59:00.040Z,1013.38
2017-05-06T07:00:00.061Z,1013.32
2017-05-06T07:01:00.086Z,1013.37
2017-05-06T07:02:00.109Z,1013.36
2017-05-06T07:03:00.131Z,1013.37
2017-05-06T07:04:00.153Z,1013.36
2017-05-06T07:05:00.176Z,1013.35
2017-05-06T07:06:00.200Z,1013.37
2017-05-06T07:07:00.221Z,1013.33
2017-05-06T07:08:00.244Z,1013.34
2017-05-06T07:09:00.268Z,1013.38
2017-05-06T07:10:00.291Z,1013.37
2017-05-06T07:11:00.314Z,1013.38
2017-05-06T07:13:00.359Z,1013.38
2017-05-06T07:14:00.382Z,1013.41
2017-05-06T07:15:00.404Z,1013.43
2017-05-06T07:16:00.427Z,1013.37
2017-05-06T07:17:00.450Z,1013.37
2017-05-06T07:18:00.473Z,1013.37
2017-05-06T07:19:00.496Z,1013.38
2017-05-06T07:20:00.519Z,1013.39
2017-05-06T07:21:00.542Z,1013.39
2017-05-06T07:22:00.565Z,1013.38
2017-05-06T07:23:00.588Z,1013.37
2017-05-06T07:24:00.611Z,1013.36
2017-05-06T07:25:00.633Z,1013.35
2017-05-06T07:26:00.656Z,1013.38
2017-05-06T07:28:00.703Z,1013.38
2017-05-06T07:29:00.725Z,1013.36
2017-05-06T07:30:00.748Z,1013.39
2017-05-06T07:31:00.772Z,1013.36
2017-05-06T07:32:00.794Z,1013.36
2017-05-06T07:33:00.816Z,1013.36
2017-05-06T07:34:00.839Z,1013.37
2017-05-06T07:35:00.862Z,1013.37
2017-05-06T07:36:00.884Z,1013.34
2017-05-06T07:37:00.907Z,1013.33
2017-05-06T07:38:00.930Z,1013.36
2017-05-06T07:39:00.953Z,1013.4
2017-05-06T07:40:00.975Z,1013.39
2017-05-06T07:41:00.998Z,1013.34
2017-05-06T07:42:01.021Z,1013.31
2017-05-06T07:43:01.044Z,1013.32
2017-05-06T07:44:01.066Z,1013.27
2017-05-06T07:45:01.089Z,1013.2
2017-05-06T07:46:01.113Z,1013.22
2017-05-06T07:47:01.135Z,1013.2
2017-05-06T07:48:01.163Z,1013.18
2017-05-06T07:49:01.182Z,1013.2
2017-05-06T07:50:01.205Z,1013.12
2017-05-06T07:51:01.228Z,1013.14
2017-05-06T07:52:01.251Z,1013.14
2017-05-06T07:53:01.275Z,1013.2
2017-05-06T07:54:01.298Z,1013.18
2017-05-06T07:55:01.320Z,1013.2
2017-05-06T07:56:01.344Z,1013.18
2017-05-06T07:57:01.368Z,1013.16
2017-05-06T07:58:01.390Z,1013.14
2017-05-06T08:00:01.437Z,1013.15
2017-05-06T08:01:01.460Z,1013.11
2017-05-06T08:02:01.483Z,1013.13
2017-05-06T08:03:01.507Z,1013.1
2017-05-06T08:04:01.530Z,1013.08
2017-05-06T08:05:01.554Z,1013.07
2017-05-06T08:06:01.577Z,1013.01
2017-05-06T08:07:01.601Z,1013.01
2017-05-06T08:08:01.624Z,1012.98
2017-05-06T08:09:01.647Z,1012.99
2017-05-06T08:10:01.670Z,1012.99
2017-05-06T08:11:01.694Z,1013
2017-05-06T08:12:01.718Z,1012.96
2017-05-06T08:13:01.741Z,1012.95
2017-05-06T08:14:01.764Z,1012.94
2017-05-06T08:16:01.816Z,1012.99
2017-05-06T08:17:01.835Z,1013.01
2017-05-06T08:18:01.859Z,1013.01
2017-05-06T08:19:01.884Z,1013.06
2017-05-06T08:20:01.905Z,1013.12
2017-05-06T08:21:01.930Z,1013.11
2017-05-06T08:22:01.954Z,1013.3
2017-05-06T08:23:01.979Z,1013.11
2017-05-06T08:24:02.003Z,1013.06
2017-05-06T08:25:02.028Z,1013.06
2017-05-06T08:26:02.052Z,1012.99
2017-05-06T08:27:02.077Z,1013.01
2017-05-06T08:28:02.101Z,1013
2017-05-06T08:29:02.127Z,1012.94
2017-05-06T08:30:02.153Z,1012.93
2017-05-06T08:32:02.203Z,1012.91
2017-05-06T08:33:02.229Z,1012.92
2017-05-06T08:34:02.253Z,1012.94
2017-05-06T08:35:02.278Z,1012.95
2017-05-06T08:36:02.304Z,1012.91
2017-05-06T08:37:02.329Z,1012.91
2017-05-06T08:38:02.355Z,1012.9
2017-05-06T08:39:02.379Z,1012.87
2017-05-06T08:40:02.405Z,1012.88
2017-05-06T08:41:02.431Z,1012.81
2017-05-06T08:42:02.457Z,1012.81
2017-05-06T08:43:02.482Z,1012.77
2017-05-06T08:44:02.535Z,1012.8
2017-05-06T08:45:02.537Z,1012.72
2017-05-06T08:46:02.559Z,1012.71
2017-05-06T08:48:02.611Z,1012.8
2017-05-06T08:49:02.636Z,1012.68
2017-05-06T08:50:02.662Z,1012.65
2017-05-06T08:51:02.688Z,1012.66
2017-05-06T08:52:02.714Z,1012.64
2017-05-06T08:53:02.739Z,1012.67
2017-05-06T08:54:02.765Z,1012.73
2017-05-06T08:55:02.792Z,1012.76
2017-05-06T08:56:02.817Z,1012.68
2017-05-06T08:57:02.842Z,1012.69
2017-05-06T08:58:02.870Z,1012.76
2017-05-06T08:59:02.896Z,1012.7
2017-05-06T09:00:02.921Z,1012.72
2017-05-06T09:01:02.948Z,1012.69
2017-05-06T09:03:03.001Z,1012.62
2017-05-06T09:04:03.026Z,1012.65
2017-05-06T09:05:03.054Z,1012.65
2017-05-06T09:06:03.079Z,1012.63
2017-05-06T09:07:03.105Z,1012.63
2017-05-06T09:08:03.131Z,1012.59
2017-05-06T09:09:03.158Z,1012.59
2017-05-06T09:10:03.184Z,1012.58
2017-05-06T09:11:03.209Z,1012.62
2017-05-06T09:12:03.237Z,1012.59
2017-05-06T09:13:03.263Z,1012.66
2017-05-06T09:14:03.290Z,1012.67
2017-05-06T09:15:03.314Z,1012.64
2017-05-06T09:16:03.342Z,1012.69
2017-05-06T09:17:03.369Z,1012.6
2017-05-06T09:18:03.396Z,1012.59
2017-05-06T09:19:03.421Z,1012.6
2017-05-06T09:20:03.451Z,1012.55
2017-05-06T09:21:03.475Z,1012.6
2017-05-06T09:22:03.501Z,1012.58
2017-05-06T09:23:03.528Z,1012.55
2017-05-06T09:24:03.554Z,1012.56
2017-05-06T09:25:03.581Z,1012.57
2017-05-06T09:26:03.608Z,1012.57
2017-05-06T09:27:03.635Z,1012.53
2017-05-06T09:28:03.661Z,1012.5
2017-05-06T09:29:03.688Z,1012.45
2017-05-06T09:30:03.715Z,1012.48
2017-05-06T09:31:03.741Z,1012.42
2017-05-06T09:32:03.769Z,1012.48
2017-05-06T09:33:03.799Z,1012.5
2017-05-06T09:35:03.848Z,1012.38
2017-05-06T09:36:03.876Z,1012.43
2017-05-06T09:37:03.902Z,1012.44
2017-05-06T09:38:03.930Z,1012.4
2017-05-06T09:39:03.957Z,1012.36
2017-05-06T09:40:03.985Z,1012.33
2017-05-06T09:41:04.012Z,1012.38
2017-05-06T09:42:04.040Z,1012.35
2017-05-06T09:43:04.067Z,1012.3
2017-05-06T09:44:04.095Z,1012.36
2017-05-06T09:45:04.122Z,1012.32
2017-05-06T09:46:04.149Z,1012.33
2017-05-06T09:47:04.178Z,1012.3
2017-05-06T09:48:04.205Z,1012.22
2017-05-06T09:49:04.233Z,1012.19
2017-05-06T09:51:04.289Z,1012.17
2017-05-06T09:52:04.316Z,1012.19
2017-05-06T09:53:04.343Z,1012.17
2017-05-06T09:54:04.371Z,1012.24
2017-05-06T09:55:04.399Z,1012.22
2017-05-06T09:56:04.426Z,1012.21
2017-05-06T09:57:04.454Z,1012.24
2017-05-06T09:58:04.481Z,1012.23
2017-05-06T09:59:04.508Z,1012.18
2017-05-06T10:00:04.536Z,1012.13
2017-05-06T10:01:04.564Z,1012.19
2017-05-06T10:02:04.591Z,1012.18
2017-05-06T10:03:04.618Z,1012.17
2017-05-06T10:04:04.646Z,1012.19
2017-05-06T10:05:04.674Z,1012.14
2017-05-06T10:07:04.733Z,1012.2
2017-05-06T10:08:04.755Z,1012.2
2017-05-06T10:09:04.788Z,1012.11
2017-05-06T10:10:04.810Z,1012.13
2017-05-06T10:11:04.838Z,1012.14
2017-05-06T10:12:04.866Z,1012.16
2017-05-06T10:13:04.894Z,1012.14
2017-05-06T10:14:04.922Z,1012.1
2017-05-06T10:15:04.949Z,1012.1
2017-05-06T10:16:04.977Z,1012.1
2017-05-06T10:17:05.030Z,1012.05
2017-05-06T10:18:05.031Z,1012.05
2017-05-06T10:19:05.062Z,1012.02
2017-05-06T10:20:05.086Z,1012
2017-05-06T10:21:05.112Z,1011.94
2017-05-06T10:23:05.168Z,1011.97
2017-05-06T10:24:05.193Z,1011.95
2017-05-06T10:25:05.221Z,1011.94
2017-05-06T10:26:05.248Z,1011.94
2017-05-06T10:27:05.275Z,1011.9
2017-05-06T10:28:05.300Z,1011.95
2017-05-06T10:29:05.328Z,1011.91
2017-05-06T10:30:05.358Z,1011.95
2017-05-06T10:31:05.381Z,1011.93
2017-05-06T10:32:05.407Z,1011.88
2017-05-06T10:33:05.434Z,1011.87
2017-05-06T10:34:05.460Z,1011.9
2017-05-06T10:35:05.487Z,1011.87
2017-05-06T10:36:05.512Z,1011.83
2017-05-06T10:38:05.565Z,1011.79
2017-05-06T10:39:05.592Z,1011.78
2017-05-06T10:40:05.617Z,1011.77
2017-05-06T10:41:05.643Z,1011.76
2017-05-06T10:42:05.669Z,1011.74
2017-05-06T10:43:05.694Z,1011.7
2017-05-06T10:44:05.720Z,1011.74
2017-05-06T10:45:05.747Z,1011.73
2017-05-06T10:46:05.771Z,1011.75
2017-05-06T10:47:05.797Z,1011.75
2017-05-06T10:48:05.822Z,1011.73
2017-05-06T10:49:05.849Z,1011.73
2017-05-06T10:50:05.874Z,1011.74
2017-05-06T10:51:05.900Z,1011.67
2017-05-06T10:52:05.925Z,1011.68
2017-05-06T10:53:05.951Z,1011.65
2017-05-06T10:54:05.981Z,1011.65
2017-05-06T10:55:06.002Z,1011.64
2017-05-06T10:56:06.027Z,1011.64
2017-05-06T10:57:06.053Z,1011.61
2017-05-06T10:58:06.077Z,1011.62
2017-05-06T10:59:06.103Z,1011.6
2017-05-06T11:00:06.129Z,1011.58
2017-05-06T11:01:06.154Z,1011.59
2017-05-06T11:02:06.180Z,1011.56
2017-05-06T11:03:06.205Z,1011.55
2017-05-06T11:04:06.235Z,1011.54
2017-05-06T11:05:06.256Z,1011.53
2017-05-06T11:06:06.282Z,1011.57
2017-05-06T11:07:06.308Z,1011.56
2017-05-06T11:08:06.333Z,1011.57
2017-05-06T11:10:06.383Z,1011.54
2017-05-06T11:11:06.410Z,1011.57
2017-05-06T11:12:06.434Z,1011.53
2017-05-06T11:13:06.460Z,1011.55
2017-05-06T11:14:06.485Z,1011.56
2017-05-06T11:15:06.511Z,1011.53
2017-05-06T11:16:06.535Z,1011.52
2017-05-06T11:17:06.561Z,1011.53
2017-05-06T11:18:06.586Z,1011.49
2017-05-06T11:19:06.611Z,1011.41
2017-05-06T11:20:06.636Z,1011.42
2017-05-06T11:21:06.661Z,1011.41
2017-05-06T11:22:06.686Z,1011.38
2017-05-06T11:23:06.712Z,1011.33
2017-05-06T11:24:06.743Z,1011.34
2017-05-06T11:26:06.788Z,1011.36
2017-05-06T11:27:06.813Z,1011.4
2017-05-06T11:28:06.838Z,1011.39
2017-05-06T11:29:06.864Z,1011.34
2017-05-06T11:30:06.889Z,1011.3
2017-05-06T11:31:06.913Z,1011.33
2017-05-06T11:32:06.939Z,1011.27
2017-05-06T11:33:06.965Z,1011.3
2017-05-06T11:34:06.989Z,1011.26
2017-05-06T11:35:07.015Z,1011.25
2017-05-06T11:36:07.039Z,1011.3
2017-05-06T11:37:07.065Z,1011.26
2017-05-06T11:38:07.089Z,1011.29
2017-05-06T11:39:07.115Z,1011.24
2017-05-06T11:40:07.141Z,1011.24
2017-05-06T11:42:07.191Z,1011.19
2017-05-06T11:43:07.216Z,1011.16
2017-05-06T11:44:07.243Z,1011.14
2017-05-06T11:45:07.267Z,1011.15
2017-05-06T11:46:07.293Z,1011.14
2017-05-06T11:47:07.318Z,1011.13
2017-05-06T11:48:07.344Z,1011.13
2017-05-06T11:49:07.370Z,1011.12
2017-05-06T11:50:07.396Z,1011.13
2017-05-06T11:51:07.421Z,1011.04
2017-05-06T11:52:07.446Z,1011.08
2017-05-06T11:53:07.473Z,1011.03
2017-05-06T11:54:07.497Z,1011
2017-05-06T11:55:07.524Z,1010.99
2017-05-06T11:56:07.549Z,1010.99
2017-05-06T11:58:07.601Z,1010.96
2017-05-06T11:59:07.628Z,1010.94
2017-05-06T12:00:07.653Z,1010.9
2017-05-06T12:01:07.678Z,1010.93
2017-05-06T12:02:07.705Z,1010.89
2017-05-06T12:03:07.730Z,1010.83
2017-05-06T12:04:07.756Z,1010.89
2017-05-06T12:05:07.782Z,1010.88
2017-05-06T12:06:07.808Z,1010.88
2017-05-06T12:07:07.833Z,1010.87
2017-05-06T12:08:07.859Z,1010.88
2017-05-06T12:09:07.884Z,1010.87
2017-05-06T12:10:07.911Z,1010.84
2017-05-06T12:11:07.938Z,1010.85
2017-05-06T12:13:07.990Z,1010.86
2017-05-06T12:14:08.015Z,1010.81
2017-05-06T12:15:08.092Z,1010.76
2017-05-06T12:16:08.068Z,1010.7
2017-05-06T12:17:08.094Z,1010.74
2017-05-06T12:18:08.119Z,1010.7
2017-05-06T12:19:08.146Z,1010.68
2017-05-06T12:20:08.172Z,1010.62
2017-05-06T12:21:08.198Z,1010.64
2017-05-06T12:22:08.223Z,1010.62
2017-05-06T12:23:08.251Z,1010.66
2017-05-06T12:24:08.276Z,1010.6
2017-05-06T12:25:08.303Z,1010.6
2017-05-06T12:26:08.329Z,1010.51
2017-05-06T12:27:08.355Z,1010.5
2017-05-06T12:28:08.382Z,1010.53
2017-05-06T12:29:08.407Z,1010.49
2017-05-06T12:30:08.434Z,1010.51
2017-05-06T12:31:08.460Z,1010.46
2017-05-06T12:32:08.485Z,1010.43
2017-05-06T12:33:08.512Z,1010.38
2017-05-06T12:34:08.538Z,1010.34
2017-05-06T12:35:08.565Z,1010.38
2017-05-06T12:36:08.590Z,1010.37
2017-05-06T12:37:08.616Z,1010.39
2017-05-06T12:38:08.642Z,1010.4
2017-05-06T12:39:08.669Z,1010.4
2017-05-06T12:40:08.695Z,1010.36
2017-05-06T12:41:08.721Z,1010.34
2017-05-06T12:42:08.747Z,1010.35
2017-05-06T12:43:08.773Z,1010.37
2017-05-06T12:45:08.825Z,1010.34
2017-05-06T12:46:08.851Z,1010.33
2017-05-06T12:47:08.876Z,1010.26
2017-05-06T12:48:08.903Z,1010.22
2017-05-06T12:49:08.929Z,1010.25
2017-05-06T12:50:08.955Z,1010.2